CZVL

Edmonton / Villeneuve Airport

Edmonton, Alberta, Canada
METAR CZVL 220300Z AUTO 11003KT 9SM OVC036 01/M02 A3017 RMK SLP250
Observed Flight Rules
Sep-22 @ 03:00 UTC (50 minutes ago) Visual Flight Rules
Wind Visibility Clouds
110° at 3 knots 9 miles
Temperatures Readings
Current 1°C / 34°F
Dewpoint -2°C / 28°F
Humidity 81%
Altimeter 30.17" Hg
Pressure 1025 hPa
Elevation 686
METAR CZVL 220300Z AUTO 11003KT 9SM OVC036 01/M02 A3017 RMK SLP250
Observed Flight Rules
Sep-22 @ 03:00 UTC
(50 minutes ago)
VFR
Wind Visibility
110° at 3 knots 9 miles
Clouds
Temperature Dewpoint
1°C / 34°F -2°C / 28°F
Humidity Altimeter Pressure
81% 30.17" Hg 1025 hPa